sensor_id;sensor_type;location;lat;lon;timestamp;temperature;humidity
5136;DHT22;2586;48.710;9.202;2022-08-06T00:00:43;20.20;99.90
5136;DHT22;2586;48.710;9.202;2022-08-06T00:03:09;20.20;99.90
5136;DHT22;2586;48.710;9.202;2022-08-06T00:05:34;20.10;99.90
5136;DHT22;2586;48.710;9.202;2022-08-06T00:08:00;20.10;99.90
5136;DHT22;2586;48.710;9.202;2022-08-06T00:10:26;20.10;99.90
5136;DHT22;2586;48.710;9.202;2022-08-06T00:12:52;20.10;99.90
5136;DHT22;2586;48.710;9.202;2022-08-06T00:15:18;20.00;99.90
5136;DHT22;2586;48.710;9.202;2022-08-06T00:17:45;20.00;99.90
5136;DHT22;2586;48.710;9.202;2022-08-06T00:20:12;20.10;99.90
5136;DHT22;2586;48.710;9.202;2022-08-06T00:22:38;20.10;99.90
5136;DHT22;2586;48.710;9.202;2022-08-06T00:25:05;20.10;99.90
5136;DHT22;2586;48.710;9.202;2022-08-06T00:27:33;20.20;99.90
5136;DHT22;2586;48.710;9.202;2022-08-06T00:29:58;20.20;99.90
5136;DHT22;2586;48.710;9.202;2022-08-06T00:32:25;20.20;99.90
5136;DHT22;2586;48.710;9.202;2022-08-06T00:34:50;20.30;99.90
5136;DHT22;2586;48.710;9.202;2022-08-06T00:37:16;20.20;99.90
5136;DHT22;2586;48.710;9.202;2022-08-06T00:39:42;20.20;99.90
5136;DHT22;2586;48.710;9.202;2022-08-06T00:42:08;20.30;99.90
5136;DHT22;2586;48.710;9.202;2022-08-06T00:44:34;20.20;97.20
5136;DHT22;2586;48.710;9.202;2022-08-06T00:47:00;20.20;93.40
5136;DHT22;2586;48.710;9.202;2022-08-06T00:49:26;20.20;91.80
5136;DHT22;2586;48.710;9.202;2022-08-06T00:51:52;20.20;84.20
5136;DHT22;2586;48.710;9.202;2022-08-06T00:54:19;20.10;91.60
5136;DHT22;2586;48.710;9.202;2022-08-06T00:56:45;20.10;94.50
5136;DHT22;2586;48.710;9.202;2022-08-06T00:59:11;20.00;89.70
5136;DHT22;2586;48.710;9.202;2022-08-06T01:01:36;20.00;84.40
5136;DHT22;2586;48.710;9.202;2022-08-06T01:04:02;19.90;87.30
5136;DHT22;2586;48.710;9.202;2022-08-06T01:06:28;20.00;93.10
5136;DHT22;2586;48.710;9.202;2022-08-06T01:08:54;20.00;75.70
5136;DHT22;2586;48.710;9.202;2022-08-06T01:11:19;19.90;67.50
5136;DHT22;2586;48.710;9.202;2022-08-06T01:13:45;19.90;66.70
5136;DHT22;2586;48.710;9.202;2022-08-06T01:16:17;20.00;59.00
5136;DHT22;2586;48.710;9.202;2022-08-06T01:24:47;19.80;47.20
5136;DHT22;2586;48.710;9.202;2022-08-06T01:29:58;19.70;58.30
5136;DHT22;2586;48.710;9.202;2022-08-06T01:32:32;19.70;58.30
5136;DHT22;2586;48.710;9.202;2022-08-06T01:35:03;19.60;51.80
5136;DHT22;2586;48.710;9.202;2022-08-06T01:37:36;19.60;52.70
5136;DHT22;2586;48.710;9.202;2022-08-06T01:40:08;19.50;50.80
5136;DHT22;2586;48.710;9.202;2022-08-06T01:42:36;19.60;51.40
5136;DHT22;2586;48.710;9.202;2022-08-06T01:45:06;19.60;51.80
5136;DHT22;2586;48.710;9.202;2022-08-06T01:47:32;19.60;44.90
5136;DHT22;2586;48.710;9.202;2022-08-06T01:50:02;19.50;34.90
5136;DHT22;2586;48.710;9.202;2022-08-06T01:52:31;19.50;34.90
5136;DHT22;2586;48.710;9.202;2022-08-06T01:54:58;19.50;31.50
5136;DHT22;2586;48.710;9.202;2022-08-06T01:57:26;19.50;32.10
5136;DHT22;2586;48.710;9.202;2022-08-06T01:59:55;19.50;28.40
5136;DHT22;2586;48.710;9.202;2022-08-06T02:02:24;19.40;30.40
5136;DHT22;2586;48.710;9.202;2022-08-06T02:04:55;19.40;27.80
5136;DHT22;2586;48.710;9.202;2022-08-06T02:07:26;19.40;24.80
5136;DHT22;2586;48.710;9.202;2022-08-06T02:09:53;19.40;28.80
5136;DHT22;2586;48.710;9.202;2022-08-06T02:12:23;19.40;27.70
5136;DHT22;2586;48.710;9.202;2022-08-06T02:15:03;19.40;26.80
5136;DHT22;2586;48.710;9.202;2022-08-06T02:17:32;19.30;34.30
5136;DHT22;2586;48.710;9.202;2022-08-06T02:19:59;19.30;29.30
5136;DHT22;2586;48.710;9.202;2022-08-06T02:22:28;19.20;27.90
5136;DHT22;2586;48.710;9.202;2022-08-06T02:24:57;19.20;25.70
5136;DHT22;2586;48.710;9.202;2022-08-06T02:27:26;19.10;32.70
5136;DHT22;2586;48.710;9.202;2022-08-06T02:29:54;19.10;34.20
5136;DHT22;2586;48.710;9.202;2022-08-06T02:32:19;19.00;29.00
5136;DHT22;2586;48.710;9.202;2022-08-06T02:34:45;19.10;34.40
5136;DHT22;2586;48.710;9.202;2022-08-06T02:37:17;19.10;36.20
5136;DHT22;2586;48.710;9.202;2022-08-06T02:39:52;19.00;29.70
5136;DHT22;2586;48.710;9.202;2022-08-06T02:42:27;19.00;33.50
5136;DHT22;2586;48.710;9.202;2022-08-06T02:45:07;19.00;37.40
5136;DHT22;2586;48.710;9.202;2022-08-06T02:48:00;19.10;32.90
5136;DHT22;2586;48.710;9.202;2022-08-06T02:50:35;18.90;33.50
5136;DHT22;2586;48.710;9.202;2022-08-06T02:53:11;19.00;33.30
5136;DHT22;2586;48.710;9.202;2022-08-06T02:55:42;18.90;30.20
5136;DHT22;2586;48.710;9.202;2022-08-06T02:58:28;18.90;35.00
5136;DHT22;2586;48.710;9.202;2022-08-06T03:00:56;18.90;38.20
5136;DHT22;2586;48.710;9.202;2022-08-06T03:03:25;18.80;35.30
5136;DHT22;2586;48.710;9.202;2022-08-06T03:05:52;18.80;47.20
5136;DHT22;2586;48.710;9.202;2022-08-06T03:08:22;18.80;39.30
5136;DHT22;2586;48.710;9.202;2022-08-06T03:10:50;18.90;51.00
5136;DHT22;2586;48.710;9.202;2022-08-06T03:13:17;18.90;46.00
5136;DHT22;2586;48.710;9.202;2022-08-06T03:15:43;18.80;44.10
5136;DHT22;2586;48.710;9.202;2022-08-06T03:18:12;18.70;42.40
5136;DHT22;2586;48.710;9.202;2022-08-06T03:20:39;18.60;53.20
5136;DHT22;2586;48.710;9.202;2022-08-06T03:23:07;18.60;58.90
5136;DHT22;2586;48.710;9.202;2022-08-06T03:25:35;18.70;66.80
5136;DHT22;2586;48.710;9.202;2022-08-06T03:28:02;18.70;57.90
5136;DHT22;2586;48.710;9.202;2022-08-06T03:30:29;18.70;58.00
5136;DHT22;2586;48.710;9.202;2022-08-06T03:32:55;18.70;57.00
5136;DHT22;2586;48.710;9.202;2022-08-06T03:35:22;18.70;66.40
5136;DHT22;2586;48.710;9.202;2022-08-06T03:37:50;18.70;65.10
5136;DHT22;2586;48.710;9.202;2022-08-06T03:40:17;18.70;58.50
5136;DHT22;2586;48.710;9.202;2022-08-06T03:42:44;18.60;64.20
5136;DHT22;2586;48.710;9.202;2022-08-06T03:45:10;18.70;70.10
5136;DHT22;2586;48.710;9.202;2022-08-06T03:47:53;18.70;78.10
5136;DHT22;2586;48.710;9.202;2022-08-06T03:50:28;18.70;78.50
5136;DHT22;2586;48.710;9.202;2022-08-06T03:52:59;18.50;88.20
5136;DHT22;2586;48.710;9.202;2022-08-06T03:55:28;18.60;92.50
5136;DHT22;2586;48.710;9.202;2022-08-06T03:58:00;18.60;99.00
5136;DHT22;2586;48.710;9.202;2022-08-06T04:00:29;18.60;98.90
5136;DHT22;2586;48.710;9.202;2022-08-06T04:02:56;18.50;99.90
5136;DHT22;2586;48.710;9.202;2022-08-06T04:05:27;18.40;99.90
5136;DHT22;2586;48.710;9.202;2022-08-06T04:07:56;18.40;99.90
5136;DHT22;2586;48.710;9.202;2022-08-06T04:10:29;18.40;99.90
5136;DHT22;2586;48.710;9.202;2022-08-06T04:12:56;18.30;99.90
5136;DHT22;2586;48.710;9.202;2022-08-06T04:15:22;18.30;99.90
5136;DHT22;2586;48.710;9.202;2022-08-06T04:17:50;18.30;99.90
5136;DHT22;2586;48.710;9.202;2022-08-06T04:20:20;18.30;99.90
5136;DHT22;2586;48.710;9.202;2022-08-06T04:22:46;18.20;99.90
5136;DHT22;2586;48.710;9.202;2022-08-06T04:25:12;18.30;99.90
5136;DHT22;2586;48.710;9.202;2022-08-06T04:27:39;18.20;99.90
5136;DHT22;2586;48.710;9.202;2022-08-06T04:30:06;18.10;99.90
5136;DHT22;2586;48.710;9.202;2022-08-06T04:32:33;18.20;99.90
5136;DHT22;2586;48.710;9.202;2022-08-06T04:35:03;18.20;99.90
5136;DHT22;2586;48.710;9.202;2022-08-06T04:37:29;18.30;99.90
5136;DHT22;2586;48.710;9.202;2022-08-06T04:39:56;18.40;99.90
5136;DHT22;2586;48.710;9.202;2022-08-06T04:42:21;18.20;99.90
5136;DHT22;2586;48.710;9.202;2022-08-06T04:44:47;18.30;99.90
5136;DHT22;2586;48.710;9.202;2022-08-06T04:47:14;18.30;99.90
5136;DHT22;2586;48.710;9.202;2022-08-06T04:49:41;18.40;99.90
5136;DHT22;2586;48.710;9.202;2022-08-06T04:52:07;18.40;99.90
5136;DHT22;2586;48.710;9.202;2022-08-06T04:54:32;18.40;99.90
5136;DHT22;2586;48.710;9.202;2022-08-06T04:56:58;18.40;99.90
5136;DHT22;2586;48.710;9.202;2022-08-06T04:59:24;18.30;99.90
5136;DHT22;2586;48.710;9.202;2022-08-06T05:01:49;18.30;99.90
5136;DHT22;2586;48.710;9.202;2022-08-06T05:04:15;18.30;99.90
5136;DHT22;2586;48.710;9.202;2022-08-06T05:09:16;18.20;99.90
5136;DHT22;2586;48.710;9.202;2022-08-06T05:12:09;18.20;99.90
5136;DHT22;2586;48.710;9.202;2022-08-06T05:14:48;18.20;99.90
5136;DHT22;2586;48.710;9.202;2022-08-06T05:17:17;18.20;99.90
5136;DHT22;2586;48.710;9.202;2022-08-06T05:19:50;18.20;99.90
5136;DHT22;2586;48.710;9.202;2022-08-06T05:22:18;18.10;99.90
5136;DHT22;2586;48.710;9.202;2022-08-06T05:24:45;18.20;99.90
5136;DHT22;2586;48.710;9.202;2022-08-06T05:27:13;18.20;99.90
5136;DHT22;2586;48.710;9.202;2022-08-06T05:29:40;18.40;99.90
5136;DHT22;2586;48.710;9.202;2022-08-06T05:32:05;18.40;99.90
5136;DHT22;2586;48.710;9.202;2022-08-06T05:34:31;18.40;99.90
5136;DHT22;2586;48.710;9.202;2022-08-06T05:36:57;18.50;99.90
5136;DHT22;2586;48.710;9.202;2022-08-06T05:39:23;18.40;99.90
5136;DHT22;2586;48.710;9.202;2022-08-06T05:41:49;18.40;99.90
5136;DHT22;2586;48.710;9.202;2022-08-06T05:44:14;18.30;99.90
5136;DHT22;2586;48.710;9.202;2022-08-06T05:46:45;18.30;99.90
5136;DHT22;2586;48.710;9.202;2022-08-06T05:49:20;18.30;99.90
5136;DHT22;2586;48.710;9.202;2022-08-06T05:54:27;18.30;99.90
5136;DHT22;2586;48.710;9.202;2022-08-06T05:57:00;18.80;99.90
5136;DHT22;2586;48.710;9.202;2022-08-06T05:59:28;18.90;99.90
5136;DHT22;2586;48.710;9.202;2022-08-06T06:01:55;19.00;99.90
5136;DHT22;2586;48.710;9.202;2022-08-06T06:04:22;19.30;99.90
5136;DHT22;2586;48.710;9.202;2022-08-06T06:06:49;19.20;99.90
5136;DHT22;2586;48.710;9.202;2022-08-06T06:09:15;19.10;99.90
5136;DHT22;2586;48.710;9.202;2022-08-06T06:11:42;19.30;99.90
5136;DHT22;2586;48.710;9.202;2022-08-06T06:23:24;18.60;99.90
5136;DHT22;2586;48.710;9.202;2022-08-06T06:34:09;18.50;99.90
5136;DHT22;2586;48.710;9.202;2022-08-06T06:39:23;18.60;99.90
5136;DHT22;2586;48.710;9.202;2022-08-06T06:42:03;18.70;99.90
5136;DHT22;2586;48.710;9.202;2022-08-06T06:44:55;18.70;99.90
5136;DHT22;2586;48.710;9.202;2022-08-06T06:47:43;18.80;99.90
5136;DHT22;2586;48.710;9.202;2022-08-06T06:50:15;18.90;99.90
5136;DHT22;2586;48.710;9.202;2022-08-06T06:52:45;19.00;99.90
5136;DHT22;2586;48.710;9.202;2022-08-06T06:55:57;19.20;99.90
5136;DHT22;2586;48.710;9.202;2022-08-06T06:58:20;19.20;99.90
5136;DHT22;2586;48.710;9.202;2022-08-06T07:00:49;19.30;99.90
5136;DHT22;2586;48.710;9.202;2022-08-06T07:03:17;19.40;99.90
5136;DHT22;2586;48.710;9.202;2022-08-06T07:05:46;19.50;99.90
5136;DHT22;2586;48.710;9.202;2022-08-06T07:08:16;19.60;99.90
5136;DHT22;2586;48.710;9.202;2022-08-06T07:10:43;19.50;99.90
5136;DHT22;2586;48.710;9.202;2022-08-06T07:13:11;19.70;99.90
5136;DHT22;2586;48.710;9.202;2022-08-06T07:15:38;19.60;99.90
5136;DHT22;2586;48.710;9.202;2022-08-06T07:18:06;19.70;99.90
5136;DHT22;2586;48.710;9.202;2022-08-06T07:20:33;20.00;99.90
5136;DHT22;2586;48.710;9.202;2022-08-06T07:23:03;19.80;99.90
5136;DHT22;2586;48.710;9.202;2022-08-06T07:25:30;19.60;99.90
5136;DHT22;2586;48.710;9.202;2022-08-06T07:27:57;19.70;99.90
5136;DHT22;2586;48.710;9.202;2022-08-06T07:30:23;20.00;99.90
5136;DHT22;2586;48.710;9.202;2022-08-06T07:32:49;19.90;99.90
5136;DHT22;2586;48.710;9.202;2022-08-06T07:35:17;20.10;99.90
5136;DHT22;2586;48.710;9.202;2022-08-06T07:37:55;20.10;99.90
5136;DHT22;2586;48.710;9.202;2022-08-06T07:40:32;20.20;99.90
5136;DHT22;2586;48.710;9.202;2022-08-06T07:43:12;20.20;99.90
5136;DHT22;2586;48.710;9.202;2022-08-06T07:45:38;20.30;99.90
5136;DHT22;2586;48.710;9.202;2022-08-06T07:48:10;20.60;99.90
5136;DHT22;2586;48.710;9.202;2022-08-06T07:50:38;20.60;81.30
5136;DHT22;2586;48.710;9.202;2022-08-06T07:53:05;20.50;93.00
5136;DHT22;2586;48.710;9.202;2022-08-06T07:55:33;20.70;95.00
5136;DHT22;2586;48.710;9.202;2022-08-06T07:58:00;21.00;93.10
5136;DHT22;2586;48.710;9.202;2022-08-06T08:00:27;21.30;72.50
5136;DHT22;2586;48.710;9.202;2022-08-06T08:02:53;21.40;29.40
5136;DHT22;2586;48.710;9.202;2022-08-06T08:05:38;21.40;35.60
5136;DHT22;2586;48.710;9.202;2022-08-06T08:08:24;21.50;32.00
5136;DHT22;2586;48.710;9.202;2022-08-06T08:10:52;21.50;45.70
5136;DHT22;2586;48.710;9.202;2022-08-06T08:13:19;21.60;29.20
5136;DHT22;2586;48.710;9.202;2022-08-06T08:15:46;21.80;27.60
5136;DHT22;2586;48.710;9.202;2022-08-06T08:18:13;22.00;20.40
5136;DHT22;2586;48.710;9.202;2022-08-06T08:20:39;22.40;15.30
5136;DHT22;2586;48.710;9.202;2022-08-06T08:23:07;22.50;1.00
5136;DHT22;2586;48.710;9.202;2022-08-06T08:25:34;21.80;1.00
5136;DHT22;2586;48.710;9.202;2022-08-06T08:28:00;22.10;1.90
5136;DHT22;2586;48.710;9.202;2022-08-06T08:30:25;22.30;1.00
5136;DHT22;2586;48.710;9.202;2022-08-06T08:32:51;22.10;1.00
5136;DHT22;2586;48.710;9.202;2022-08-06T08:35:17;22.00;2.10
5136;DHT22;2586;48.710;9.202;2022-08-06T08:37:42;21.80;1.00
5136;DHT22;2586;48.710;9.202;2022-08-06T08:40:09;21.80;1.00
5136;DHT22;2586;48.710;9.202;2022-08-06T08:42:45;22.10;8.00
5136;DHT22;2586;48.710;9.202;2022-08-06T08:45:12;22.10;2.70
5136;DHT22;2586;48.710;9.202;2022-08-06T08:47:51;22.40;1.00
5136;DHT22;2586;48.710;9.202;2022-08-06T08:50:23;22.60;1.00
5136;DHT22;2586;48.710;9.202;2022-08-06T08:52:52;22.90;1.00
5136;DHT22;2586;48.710;9.202;2022-08-06T08:55:23;23.20;1.00
5136;DHT22;2586;48.710;9.202;2022-08-06T08:57:50;23.90;1.00
5136;DHT22;2586;48.710;9.202;2022-08-06T09:00:17;24.20;1.00
5136;DHT22;2586;48.710;9.202;2022-08-06T09:02:43;24.30;1.00
5136;DHT22;2586;48.710;9.202;2022-08-06T09:05:10;24.50;1.00
5136;DHT22;2586;48.710;9.202;2022-08-06T09:07:36;24.40;1.00
5136;DHT22;2586;48.710;9.202;2022-08-06T09:10:02;24.40;1.00
5136;DHT22;2586;48.710;9.202;2022-08-06T09:12:28;23.90;1.00
5136;DHT22;2586;48.710;9.202;2022-08-06T09:14:53;23.50;1.00
5136;DHT22;2586;48.710;9.202;2022-08-06T09:17:19;23.30;1.00
5136;DHT22;2586;48.710;9.202;2022-08-06T09:19:45;23.90;1.00
5136;DHT22;2586;48.710;9.202;2022-08-06T09:22:12;24.50;1.00
5136;DHT22;2586;48.710;9.202;2022-08-06T09:24:38;25.00;1.00
5136;DHT22;2586;48.710;9.202;2022-08-06T09:27:11;24.20;1.00
5136;DHT22;2586;48.710;9.202;2022-08-06T09:29:54;23.40;1.00
5136;DHT22;2586;48.710;9.202;2022-08-06T09:32:42;22.70;1.00
5136;DHT22;2586;48.710;9.202;2022-08-06T09:37:52;23.80;1.00
5136;DHT22;2586;48.710;9.202;2022-08-06T09:40:24;23.70;1.00
5136;DHT22;2586;48.710;9.202;2022-08-06T09:42:50;23.80;1.00
5136;DHT22;2586;48.710;9.202;2022-08-06T09:45:19;23.50;1.00
5136;DHT22;2586;48.710;9.202;2022-08-06T09:47:46;23.30;1.00
5136;DHT22;2586;48.710;9.202;2022-08-06T09:50:12;22.90;1.00
5136;DHT22;2586;48.710;9.202;2022-08-06T09:52:37;22.80;1.00
5136;DHT22;2586;48.710;9.202;2022-08-06T09:55:04;22.70;1.00
5136;DHT22;2586;48.710;9.202;2022-08-06T09:57:45;22.60;1.00
5136;DHT22;2586;48.710;9.202;2022-08-06T10:00:24;22.60;1.00
5136;DHT22;2586;48.710;9.202;2022-08-06T10:02:54;22.60;1.00
5136;DHT22;2586;48.710;9.202;2022-08-06T10:05:19;22.50;1.00
5136;DHT22;2586;48.710;9.202;2022-08-06T10:08:08;22.40;1.00
5136;DHT22;2586;48.710;9.202;2022-08-06T10:10:51;22.20;1.00
5136;DHT22;2586;48.710;9.202;2022-08-06T10:13:21;22.80;1.00
5136;DHT22;2586;48.710;9.202;2022-08-06T10:15:49;23.10;1.00
5136;DHT22;2586;48.710;9.202;2022-08-06T10:18:39;22.90;1.00
5136;DHT22;2586;48.710;9.202;2022-08-06T10:21:06;23.00;1.00
5136;DHT22;2586;48.710;9.202;2022-08-06T10:23:35;22.80;1.00
5136;DHT22;2586;48.710;9.202;2022-08-06T10:26:03;22.70;1.00
5136;DHT22;2586;48.710;9.202;2022-08-06T10:28:31;22.90;1.00
5136;DHT22;2586;48.710;9.202;2022-08-06T10:30:58;22.80;1.00
5136;DHT22;2586;48.710;9.202;2022-08-06T10:33:24;22.90;1.00
5136;DHT22;2586;48.710;9.202;2022-08-06T10:36:03;23.10;1.00
5136;DHT22;2586;48.710;9.202;2022-08-06T10:38:34;23.00;1.00
5136;DHT22;2586;48.710;9.202;2022-08-06T10:41:05;23.10;1.00
5136;DHT22;2586;48.710;9.202;2022-08-06T10:43:31;23.30;1.00
5136;DHT22;2586;48.710;9.202;2022-08-06T10:46:00;23.20;1.00
5136;DHT22;2586;48.710;9.202;2022-08-06T10:48:26;23.80;1.00
5136;DHT22;2586;48.710;9.202;2022-08-06T10:50:53;24.50;1.00
5136;DHT22;2586;48.710;9.202;2022-08-06T10:53:19;25.50;1.00
5136;DHT22;2586;48.710;9.202;2022-08-06T10:55:44;25.40;1.00
5136;DHT22;2586;48.710;9.202;2022-08-06T10:58:10;24.90;1.00
5136;DHT22;2586;48.710;9.202;2022-08-06T11:00:37;24.90;1.00
5136;DHT22;2586;48.710;9.202;2022-08-06T11:03:15;24.80;1.00
5136;DHT22;2586;48.710;9.202;2022-08-06T11:05:44;24.80;1.00
5136;DHT22;2586;48.710;9.202;2022-08-06T11:11:18;25.20;1.00
5136;DHT22;2586;48.710;9.202;2022-08-06T11:14:02;26.30;1.00
5136;DHT22;2586;48.710;9.202;2022-08-06T11:16:30;26.60;1.00
5136;DHT22;2586;48.710;9.202;2022-08-06T11:19:09;26.70;1.00
5136;DHT22;2586;48.710;9.202;2022-08-06T11:21:36;26.80;1.00
5136;DHT22;2586;48.710;9.202;2022-08-06T11:24:04;26.60;1.00
5136;DHT22;2586;48.710;9.202;2022-08-06T11:26:42;26.30;1.00
5136;DHT22;2586;48.710;9.202;2022-08-06T11:29:10;26.20;1.00
5136;DHT22;2586;48.710;9.202;2022-08-06T11:31:43;26.10;1.00
5136;DHT22;2586;48.710;9.202;2022-08-06T11:34:17;25.60;1.00
5136;DHT22;2586;48.710;9.202;2022-08-06T11:39:10;25.50;1.00
5136;DHT22;2586;48.710;9.202;2022-08-06T11:41:57;25.50;1.00
5136;DHT22;2586;48.710;9.202;2022-08-06T11:44:28;25.60;1.00
5136;DHT22;2586;48.710;9.202;2022-08-06T11:49:41;26.70;1.00
5136;DHT22;2586;48.710;9.202;2022-08-06T11:52:07;27.00;1.00
5136;DHT22;2586;48.710;9.202;2022-08-06T11:54:53;27.50;1.00
5136;DHT22;2586;48.710;9.202;2022-08-06T11:57:22;27.50;1.00
5136;DHT22;2586;48.710;9.202;2022-08-06T12:02:47;27.40;1.00
5136;DHT22;2586;48.710;9.202;2022-08-06T12:07:47;28.60;1.00
5136;DHT22;2586;48.710;9.202;2022-08-06T12:10:29;29.10;1.00
5136;DHT22;2586;48.710;9.202;2022-08-06T12:12:55;28.80;1.00
5136;DHT22;2586;48.710;9.202;2022-08-06T12:20:34;27.80;1.00
5136;DHT22;2586;48.710;9.202;2022-08-06T12:23:11;27.60;1.00
5136;DHT22;2586;48.710;9.202;2022-08-06T12:25:38;27.10;1.00
5136;DHT22;2586;48.710;9.202;2022-08-06T12:28:05;26.60;1.00
5136;DHT22;2586;48.710;9.202;2022-08-06T12:30:41;26.40;1.00
5136;DHT22;2586;48.710;9.202;2022-08-06T12:33:08;26.30;1.00
5136;DHT22;2586;48.710;9.202;2022-08-06T12:35:34;26.80;1.00
5136;DHT22;2586;48.710;9.202;2022-08-06T12:38:00;27.40;1.00
5136;DHT22;2586;48.710;9.202;2022-08-06T12:40:26;27.10;1.00
5136;DHT22;2586;48.710;9.202;2022-08-06T12:43:08;27.00;1.00
5136;DHT22;2586;48.710;9.202;2022-08-06T12:45:35;26.90;1.00
5136;DHT22;2586;48.710;9.202;2022-08-06T12:48:05;27.90;1.00
5136;DHT22;2586;48.710;9.202;2022-08-06T12:50:34;28.70;1.00
5136;DHT22;2586;48.710;9.202;2022-08-06T12:53:07;28.20;1.00
5136;DHT22;2586;48.710;9.202;2022-08-06T12:55:55;29.00;1.00
5136;DHT22;2586;48.710;9.202;2022-08-06T12:58:25;29.50;1.00
5136;DHT22;2586;48.710;9.202;2022-08-06T13:00:54;29.40;1.00
5136;DHT22;2586;48.710;9.202;2022-08-06T13:03:23;29.90;1.00
5136;DHT22;2586;48.710;9.202;2022-08-06T13:05:50;29.60;1.00
5136;DHT22;2586;48.710;9.202;2022-08-06T13:08:19;29.60;1.00
5136;DHT22;2586;48.710;9.202;2022-08-06T13:10:52;30.20;1.00
5136;DHT22;2586;48.710;9.202;2022-08-06T13:13:19;30.70;1.00
5136;DHT22;2586;48.710;9.202;2022-08-06T13:16:05;30.10;1.00
5136;DHT22;2586;48.710;9.202;2022-08-06T13:18:30;30.00;1.00
5136;DHT22;2586;48.710;9.202;2022-08-06T13:20:57;30.70;1.00
5136;DHT22;2586;48.710;9.202;2022-08-06T13:23:35;30.70;1.00
5136;DHT22;2586;48.710;9.202;2022-08-06T13:28:38;29.70;1.00
5136;DHT22;2586;48.710;9.202;2022-08-06T13:31:17;30.30;1.00
5136;DHT22;2586;48.710;9.202;2022-08-06T13:33:42;30.80;1.00
5136;DHT22;2586;48.710;9.202;2022-08-06T13:36:09;29.80;1.00
5136;DHT22;2586;48.710;9.202;2022-08-06T13:38:36;29.50;1.00
5136;DHT22;2586;48.710;9.202;2022-08-06T13:41:03;30.10;1.00
5136;DHT22;2586;48.710;9.202;2022-08-06T13:43:43;30.00;1.00
5136;DHT22;2586;48.710;9.202;2022-08-06T13:46:10;29.20;1.00
5136;DHT22;2586;48.710;9.202;2022-08-06T13:48:36;29.20;1.00
5136;DHT22;2586;48.710;9.202;2022-08-06T13:51:02;30.30;1.00
5136;DHT22;2586;48.710;9.202;2022-08-06T13:53:28;30.70;1.00
5136;DHT22;2586;48.710;9.202;2022-08-06T13:55:53;31.20;1.00
5136;DHT22;2586;48.710;9.202;2022-08-06T13:58:19;31.40;1.00
5136;DHT22;2586;48.710;9.202;2022-08-06T14:00:45;31.10;1.00
5136;DHT22;2586;48.710;9.202;2022-08-06T14:03:13;31.30;1.00
5136;DHT22;2586;48.710;9.202;2022-08-06T14:05:38;31.50;1.00
5136;DHT22;2586;48.710;9.202;2022-08-06T14:08:04;30.50;1.00
5136;DHT22;2586;48.710;9.202;2022-08-06T14:10:30;30.20;1.00
5136;DHT22;2586;48.710;9.202;2022-08-06T14:12:56;30.90;1.00
5136;DHT22;2586;48.710;9.202;2022-08-06T14:15:40;31.70;1.00
5136;DHT22;2586;48.710;9.202;2022-08-06T14:18:06;30.90;1.00
5136;DHT22;2586;48.710;9.202;2022-08-06T14:20:31;30.00;1.00
5136;DHT22;2586;48.710;9.202;2022-08-06T14:22:57;28.90;1.00
5136;DHT22;2586;48.710;9.202;2022-08-06T14:25:24;28.30;1.00
5136;DHT22;2586;48.710;9.202;2022-08-06T14:27:50;28.00;1.00
5136;DHT22;2586;48.710;9.202;2022-08-06T14:30:17;27.90;1.00
5136;DHT22;2586;48.710;9.202;2022-08-06T14:32:43;28.00;1.00
5136;DHT22;2586;48.710;9.202;2022-08-06T14:35:09;27.50;1.00
5136;DHT22;2586;48.710;9.202;2022-08-06T14:37:35;27.30;1.00
5136;DHT22;2586;48.710;9.202;2022-08-06T14:40:02;27.70;1.00
5136;DHT22;2586;48.710;9.202;2022-08-06T14:42:28;27.80;1.00
5136;DHT22;2586;48.710;9.202;2022-08-06T14:45:13;27.50;1.00
5136;DHT22;2586;48.710;9.202;2022-08-06T14:47:39;27.20;1.00
5136;DHT22;2586;48.710;9.202;2022-08-06T14:50:06;27.20;1.00
5136;DHT22;2586;48.710;9.202;2022-08-06T14:52:32;27.10;1.00
5136;DHT22;2586;48.710;9.202;2022-08-06T14:54:58;27.30;1.00
5136;DHT22;2586;48.710;9.202;2022-08-06T14:57:25;27.70;1.00
5136;DHT22;2586;48.710;9.202;2022-08-06T14:59:51;28.20;1.00
5136;DHT22;2586;48.710;9.202;2022-08-06T15:02:17;28.70;1.00
5136;DHT22;2586;48.710;9.202;2022-08-06T15:04:42;29.60;1.00
5136;DHT22;2586;48.710;9.202;2022-08-06T15:07:08;30.60;1.00
5136;DHT22;2586;48.710;9.202;2022-08-06T15:09:34;32.00;1.00
5136;DHT22;2586;48.710;9.202;2022-08-06T15:12:00;32.50;1.00
5136;DHT22;2586;48.710;9.202;2022-08-06T15:14:26;32.00;1.00
5136;DHT22;2586;48.710;9.202;2022-08-06T15:16:53;31.20;1.00
5136;DHT22;2586;48.710;9.202;2022-08-06T15:19:19;30.80;1.00
5136;DHT22;2586;48.710;9.202;2022-08-06T15:21:45;31.10;1.00
5136;DHT22;2586;48.710;9.202;2022-08-06T15:24:11;30.30;1.00
5136;DHT22;2586;48.710;9.202;2022-08-06T15:26:36;29.60;1.00
5136;DHT22;2586;48.710;9.202;2022-08-06T15:29:02;29.50;1.00
5136;DHT22;2586;48.710;9.202;2022-08-06T15:31:28;30.50;1.00
5136;DHT22;2586;48.710;9.202;2022-08-06T15:33:54;30.50;1.00
5136;DHT22;2586;48.710;9.202;2022-08-06T15:36:20;31.00;1.00
5136;DHT22;2586;48.710;9.202;2022-08-06T15:38:45;30.60;1.00
5136;DHT22;2586;48.710;9.202;2022-08-06T15:41:11;29.90;1.00
5136;DHT22;2586;48.710;9.202;2022-08-06T15:43:36;29.40;1.00
5136;DHT22;2586;48.710;9.202;2022-08-06T15:46:02;30.20;1.00
5136;DHT22;2586;48.710;9.202;2022-08-06T15:48:29;31.10;1.00
5136;DHT22;2586;48.710;9.202;2022-08-06T15:50:56;32.40;1.00
5136;DHT22;2586;48.710;9.202;2022-08-06T15:53:25;33.20;1.00
5136;DHT22;2586;48.710;9.202;2022-08-06T15:55:51;33.30;1.00
5136;DHT22;2586;48.710;9.202;2022-08-06T15:58:17;32.40;1.00
5136;DHT22;2586;48.710;9.202;2022-08-06T16:00:43;31.40;1.00
5136;DHT22;2586;48.710;9.202;2022-08-06T16:03:11;31.50;1.00
5136;DHT22;2586;48.710;9.202;2022-08-06T16:05:39;31.50;1.00
5136;DHT22;2586;48.710;9.202;2022-08-06T16:08:06;30.70;1.00
5136;DHT22;2586;48.710;9.202;2022-08-06T16:10:32;31.10;1.00
5136;DHT22;2586;48.710;9.202;2022-08-06T16:12:57;31.60;1.00
5136;DHT22;2586;48.710;9.202;2022-08-06T16:15:23;31.00;1.00
5136;DHT22;2586;48.710;9.202;2022-08-06T16:17:49;29.90;1.00
5136;DHT22;2586;48.710;9.202;2022-08-06T16:20:16;29.50;1.00
5136;DHT22;2586;48.710;9.202;2022-08-06T16:22:42;28.80;1.00
5136;DHT22;2586;48.710;9.202;2022-08-06T16:25:08;29.10;1.00
5136;DHT22;2586;48.710;9.202;2022-08-06T16:27:33;29.10;1.00
5136;DHT22;2586;48.710;9.202;2022-08-06T16:29:59;28.80;1.00
5136;DHT22;2586;48.710;9.202;2022-08-06T16:32:25;28.40;1.00
5136;DHT22;2586;48.710;9.202;2022-08-06T16:34:50;28.30;1.00
5136;DHT22;2586;48.710;9.202;2022-08-06T16:37:20;28.40;1.00
5136;DHT22;2586;48.710;9.202;2022-08-06T16:39:46;28.60;1.00
5136;DHT22;2586;48.710;9.202;2022-08-06T16:42:11;28.30;1.00
5136;DHT22;2586;48.710;9.202;2022-08-06T16:44:37;28.00;1.00
5136;DHT22;2586;48.710;9.202;2022-08-06T16:47:03;28.00;1.00
5136;DHT22;2586;48.710;9.202;2022-08-06T16:49:29;27.90;1.00
5136;DHT22;2586;48.710;9.202;2022-08-06T16:51:54;28.00;1.00
5136;DHT22;2586;48.710;9.202;2022-08-06T16:54:20;27.60;1.00
5136;DHT22;2586;48.710;9.202;2022-08-06T16:56:45;27.20;1.00
5136;DHT22;2586;48.710;9.202;2022-08-06T16:59:11;27.00;1.00
5136;DHT22;2586;48.710;9.202;2022-08-06T17:01:38;26.80;1.00
5136;DHT22;2586;48.710;9.202;2022-08-06T17:04:05;26.90;1.00
5136;DHT22;2586;48.710;9.202;2022-08-06T17:06:31;27.10;1.00
5136;DHT22;2586;48.710;9.202;2022-08-06T17:08:59;27.00;1.00
5136;DHT22;2586;48.710;9.202;2022-08-06T17:11:26;26.80;1.00
5136;DHT22;2586;48.710;9.202;2022-08-06T17:13:52;26.80;1.00
5136;DHT22;2586;48.710;9.202;2022-08-06T17:16:19;26.80;1.00
5136;DHT22;2586;48.710;9.202;2022-08-06T17:18:44;26.70;1.00